createdAt,value
2019-03-08T00:00:23.224Z,1.10
2019-03-08T00:02:56.625Z,0.90
2019-03-08T00:05:30.001Z,0.90
2019-03-08T00:08:03.398Z,1.00
2019-03-08T00:10:36.805Z,0.87
2019-03-08T00:13:10.206Z,0.90
2019-03-08T00:15:43.773Z,0.97
2019-03-08T00:18:17.197Z,1.00
2019-03-08T00:20:50.505Z,1.10
2019-03-08T00:23:23.850Z,1.00
2019-03-08T00:25:57.625Z,1.30
2019-03-08T00:28:30.937Z,1.10
2019-03-08T00:31:04.261Z,1.00
2019-03-08T00:33:37.686Z,1.30
2019-03-08T00:36:11.075Z,1.40
2019-03-08T00:38:44.489Z,1.40
2019-03-08T00:41:17.805Z,1.00
2019-03-08T00:43:51.227Z,1.00
2019-03-08T00:46:24.580Z,0.90
2019-03-08T00:48:57.925Z,0.90
2019-03-08T00:51:31.276Z,0.87
2019-03-08T00:54:04.693Z,1.33
2019-03-08T00:56:39.700Z,1.40
2019-03-08T00:59:13.164Z,1.10
2019-03-08T01:01:46.556Z,0.80
2019-03-08T01:04:19.889Z,0.90
2019-03-08T01:06:53.353Z,1.10
2019-03-08T01:09:26.965Z,1.00
2019-03-08T01:12:00.262Z,0.90
2019-03-08T01:14:33.622Z,0.80
2019-03-08T01:17:07.017Z,1.00
2019-03-08T01:19:40.544Z,0.83
2019-03-08T01:22:13.872Z,1.07
2019-03-08T01:24:47.302Z,0.80
2019-03-08T01:27:20.629Z,0.80
2019-03-08T01:29:54.159Z,0.80
2019-03-08T01:32:27.578Z,0.70
2019-03-08T01:35:00.919Z,0.80
2019-03-08T01:37:34.601Z,0.70
2019-03-08T01:40:08.666Z,0.80
2019-03-08T01:42:43.369Z,0.80
2019-03-08T01:45:16.720Z,0.47
2019-03-08T01:47:50.061Z,0.83
2019-03-08T01:50:23.536Z,0.70
2019-03-08T01:52:56.877Z,0.70
2019-03-08T01:55:30.269Z,0.90
2019-03-08T01:58:03.603Z,1.00
2019-03-08T02:00:36.980Z,0.80
2019-03-08T02:03:10.400Z,0.60
2019-03-08T02:05:43.717Z,0.70
2019-03-08T02:08:17.125Z,0.77
2019-03-08T02:10:50.455Z,0.87
2019-03-08T02:13:24.145Z,0.80
2019-03-08T02:15:57.456Z,0.77
2019-03-08T02:18:30.790Z,0.97
2019-03-08T02:21:07.115Z,1.00
2019-03-08T02:23:39.198Z,0.80
2019-03-08T02:26:12.552Z,0.80
2019-03-08T02:28:45.891Z,0.83
2019-03-08T02:31:19.209Z,0.80
2019-03-08T02:33:52.616Z,0.80
2019-03-08T02:36:25.938Z,1.10
2019-03-08T02:38:59.264Z,0.83
2019-03-08T02:41:32.621Z,0.80
2019-03-08T02:44:06.067Z,0.80
2019-03-08T02:46:39.406Z,0.80
2019-03-08T02:49:12.945Z,0.80
2019-03-08T02:51:46.281Z,0.80
2019-03-08T02:54:19.618Z,0.73
2019-03-08T02:56:52.967Z,1.30
2019-03-08T02:59:26.348Z,0.90
2019-03-08T03:01:59.698Z,0.90
2019-03-08T03:04:33.036Z,2.23
2019-03-08T03:07:06.510Z,0.90
2019-03-08T03:09:39.862Z,0.90
2019-03-08T03:12:13.184Z,0.80
2019-03-08T03:14:46.533Z,0.80
2019-03-08T03:17:20.027Z,0.97
2019-03-08T03:19:53.441Z,1.23
2019-03-08T03:22:26.747Z,0.70
2019-03-08T03:25:00.277Z,1.17
2019-03-08T03:27:33.884Z,0.93
2019-03-08T03:30:13.379Z,1.10
2019-03-08T03:32:46.699Z,0.83
2019-03-08T03:35:20.049Z,1.10
2019-03-08T03:37:53.646Z,1.13
2019-03-08T03:40:27.054Z,0.87
2019-03-08T03:43:00.414Z,1.10
2019-03-08T03:45:33.869Z,1.47
2019-03-08T03:48:07.542Z,1.03
2019-03-08T03:50:40.880Z,1.00
2019-03-08T03:53:14.262Z,1.20
2019-03-08T03:55:47.671Z,1.20
2019-03-08T03:58:20.996Z,0.93
2019-03-08T04:00:54.986Z,1.53
2019-03-08T04:03:28.313Z,1.10
2019-03-08T04:06:01.675Z,1.17
2019-03-08T04:08:35.008Z,1.27
2019-03-08T04:11:08.478Z,1.00
2019-03-08T04:13:41.815Z,1.23
2019-03-08T04:16:15.144Z,1.10
2019-03-08T04:18:48.480Z,1.03
2019-03-08T04:21:21.865Z,1.53
2019-03-08T04:23:55.302Z,1.40
2019-03-08T04:26:28.647Z,1.00
2019-03-08T04:29:02.056Z,1.23
2019-03-08T04:31:35.552Z,0.87
2019-03-08T04:34:08.868Z,0.83
2019-03-08T04:36:42.302Z,1.10
2019-03-08T04:39:15.699Z,1.17
2019-03-08T04:41:49.186Z,1.23
2019-03-08T04:44:22.532Z,1.20
2019-03-08T04:46:56.039Z,1.33
2019-03-08T04:49:29.379Z,1.10
2019-03-08T04:52:02.725Z,1.33
2019-03-08T04:54:36.068Z,1.30
2019-03-08T04:57:09.389Z,1.10
2019-03-08T04:59:42.738Z,1.40
2019-03-08T05:02:16.144Z,1.07
2019-03-08T05:04:49.490Z,1.30
2019-03-08T05:07:22.832Z,0.90
2019-03-08T05:09:56.201Z,1.30
2019-03-08T05:12:30.993Z,1.40
2019-03-08T05:15:05.724Z,1.20
2019-03-08T05:17:39.102Z,1.10
2019-03-08T05:20:12.614Z,1.20
2019-03-08T05:22:45.938Z,1.10
2019-03-08T05:25:19.548Z,1.43
2019-03-08T05:27:52.944Z,1.00
2019-03-08T05:30:26.266Z,1.10
2019-03-08T05:32:59.584Z,0.93
2019-03-08T05:35:33.029Z,1.10
2019-03-08T05:38:06.424Z,1.30
2019-03-08T05:40:39.968Z,1.17
2019-03-08T05:43:13.294Z,1.40
2019-03-08T05:45:46.642Z,1.20
2019-03-08T05:48:19.992Z,1.30
2019-03-08T05:50:53.323Z,1.23
2019-03-08T05:53:26.639Z,1.20
2019-03-08T05:56:00.134Z,1.30
2019-03-08T05:58:33.727Z,1.20
2019-03-08T06:01:07.086Z,1.00
2019-03-08T06:03:40.417Z,1.30
2019-03-08T06:06:13.741Z,1.60
2019-03-08T06:08:47.196Z,1.50
2019-03-08T06:11:20.612Z,1.17
2019-03-08T06:13:53.973Z,1.50
2019-03-08T06:16:27.377Z,1.30
2019-03-08T06:19:00.795Z,1.53
2019-03-08T06:21:34.152Z,1.17
2019-03-08T06:24:07.532Z,1.20
2019-03-08T06:26:41.052Z,1.30
2019-03-08T06:29:14.367Z,1.23
2019-03-08T06:31:47.994Z,1.43
2019-03-08T06:34:21.321Z,1.70
2019-03-08T06:36:54.667Z,1.90
2019-03-08T06:39:27.993Z,1.23
2019-03-08T06:42:01.348Z,0.90
2019-03-08T06:44:34.775Z,1.40
2019-03-08T06:47:08.168Z,1.27
2019-03-08T06:49:41.481Z,1.33
2019-03-08T06:52:14.954Z,1.20
2019-03-08T06:54:48.252Z,1.57
2019-03-08T06:57:21.592Z,1.50
2019-03-08T06:59:56.658Z,1.30
2019-03-08T07:02:30.301Z,1.10
2019-03-08T07:05:04.304Z,1.20
2019-03-08T07:07:37.653Z,1.30
2019-03-08T07:10:11.065Z,1.30
2019-03-08T07:12:44.477Z,1.77
2019-03-08T07:15:17.882Z,2.13
2019-03-08T07:17:51.248Z,1.33
2019-03-08T07:20:38.511Z,1.10
2019-03-08T07:23:27.589Z,1.30
2019-03-08T07:26:05.145Z,1.03
2019-03-08T07:28:57.450Z,1.53
2019-03-08T07:31:32.589Z,1.03
2019-03-08T07:34:07.671Z,1.07
2019-03-08T07:36:45.503Z,1.30
2019-03-08T07:39:36.777Z,1.10
2019-03-08T07:42:28.124Z,1.00
2019-03-08T07:45:19.532Z,0.93
2019-03-08T07:47:57.525Z,1.07
2019-03-08T07:50:32.805Z,1.30
2019-03-08T07:53:11.121Z,1.40
2019-03-08T07:55:52.165Z,1.03
2019-03-08T07:58:35.865Z,1.53
2019-03-08T08:01:10.862Z,1.17
2019-03-08T08:03:45.905Z,1.43
2019-03-08T08:06:20.884Z,1.37
2019-03-08T08:08:55.867Z,1.20
2019-03-08T08:11:33.948Z,1.23
2019-03-08T08:14:08.920Z,1.03
2019-03-08T08:16:43.910Z,1.23
2019-03-08T08:19:18.879Z,1.20
2019-03-08T08:22:12.416Z,1.40
2019-03-08T08:24:50.274Z,1.10
2019-03-08T08:27:27.832Z,1.23
2019-03-08T08:30:02.918Z,1.03
2019-03-08T08:32:40.677Z,1.47
2019-03-08T08:35:15.708Z,1.33
2019-03-08T08:37:53.407Z,1.07
2019-03-08T08:40:40.522Z,1.20
2019-03-08T08:43:15.634Z,1.40
2019-03-08T08:45:59.877Z,1.67
2019-03-08T08:48:37.631Z,1.17
2019-03-08T08:51:21.218Z,1.10
2019-03-08T08:54:11.300Z,1.30
2019-03-08T08:56:46.428Z,1.40
2019-03-08T08:59:24.307Z,1.40
2019-03-08T09:02:01.824Z,1.50
2019-03-08T09:04:36.840Z,1.20
2019-03-08T09:07:14.675Z,1.17
2019-03-08T09:09:55.340Z,1.10
2019-03-08T09:12:39.440Z,1.73
2019-03-08T09:15:17.283Z,1.60
2019-03-08T09:17:54.773Z,1.47
2019-03-08T09:20:46.023Z,1.53
2019-03-08T09:23:39.571Z,1.20
2019-03-08T09:26:30.436Z,1.33
2019-03-08T09:29:08.536Z,0.67
2019-03-08T09:31:43.534Z,1.00
2019-03-08T09:34:19.593Z,0.70
2019-03-08T09:37:10.600Z,1.33
2019-03-08T09:39:45.575Z,1.10
2019-03-08T09:42:26.115Z,1.37
2019-03-08T09:45:01.138Z,0.70
2019-03-08T09:47:36.100Z,0.93
2019-03-08T09:50:27.106Z,1.50
2019-03-08T09:53:02.401Z,1.10
2019-03-08T09:55:37.446Z,1.20
2019-03-08T09:58:24.106Z,1.27
2019-03-08T10:01:01.950Z,0.87
2019-03-08T10:03:36.922Z,1.37
2019-03-08T10:06:12.122Z,1.20
2019-03-08T10:08:47.599Z,1.13
2019-03-08T10:11:22.867Z,0.77
2019-03-08T10:14:13.074Z,1.30
2019-03-08T10:16:48.061Z,1.33
2019-03-08T10:19:28.869Z,0.80
2019-03-08T10:22:20.079Z,1.10
2019-03-08T10:24:55.038Z,1.00
2019-03-08T10:27:38.180Z,0.73
2019-03-08T10:30:25.910Z,1.10
2019-03-08T10:33:06.950Z,1.13
2019-03-08T10:35:41.955Z,1.10
2019-03-08T10:38:32.332Z,1.10
2019-03-08T10:41:23.559Z,0.90
2019-03-08T10:44:09.117Z,1.10
2019-03-08T10:46:50.109Z,0.90
2019-03-08T10:49:41.445Z,1.07
2019-03-08T10:52:22.456Z,0.90
2019-03-08T10:55:00.443Z,0.90
2019-03-08T10:57:40.957Z,1.30
2019-03-08T11:00:19.356Z,0.60
2019-03-08T11:03:00.350Z,1.00
2019-03-08T11:05:40.975Z,0.63
2019-03-08T11:08:29.494Z,1.10
2019-03-08T11:11:06.638Z,0.80
2019-03-08T11:13:43.556Z,1.03
2019-03-08T11:16:20.245Z,0.87
2019-03-08T11:19:08.552Z,0.73
2019-03-08T11:21:55.529Z,1.13
2019-03-08T11:24:33.657Z,1.10
2019-03-08T11:27:24.056Z,1.10
2019-03-08T11:29:59.072Z,1.17
2019-03-08T11:32:36.773Z,1.30
2019-03-08T11:35:21.777Z,1.57
2019-03-08T11:38:05.529Z,1.70
2019-03-08T11:40:40.666Z,2.37
2019-03-08T11:43:34.101Z,2.90
2019-03-08T11:46:18.773Z,1.37
2019-03-08T11:49:05.967Z,2.23
2019-03-08T11:51:57.054Z,2.20
2019-03-08T11:54:44.369Z,2.57
2019-03-08T11:57:25.461Z,2.37
2019-03-08T12:00:00.473Z,2.37
2019-03-08T12:02:47.214Z,2.23
2019-03-08T12:05:31.721Z,2.33
2019-03-08T12:08:12.752Z,2.83
2019-03-08T12:10:50.353Z,2.60
2019-03-08T12:13:25.319Z,2.40
2019-03-08T12:16:19.047Z,2.27
2019-03-08T12:19:03.319Z,2.17
2019-03-08T12:21:38.424Z,2.70
2019-03-08T12:24:13.468Z,2.40
2019-03-08T12:26:57.516Z,2.50
2019-03-08T12:29:32.845Z,2.30
2019-03-08T12:32:10.412Z,2.67
2019-03-08T12:35:00.574Z,3.13
2019-03-08T12:37:41.536Z,2.77
2019-03-08T12:40:19.571Z,2.77
2019-03-08T12:42:54.600Z,3.37
2019-03-08T12:45:41.761Z,2.30
2019-03-08T12:48:25.752Z,2.57
2019-03-08T12:51:17.287Z,4.87
2019-03-08T12:54:10.633Z,2.27
2019-03-08T12:56:54.574Z,3.60
2019-03-08T12:59:35.036Z,2.70
2019-03-08T13:02:19.011Z,2.27
2019-03-08T13:05:00.015Z,1.90
2019-03-08T13:07:35.013Z,2.30
2019-03-08T13:10:16.423Z,1.97
2019-03-08T13:12:50.186Z,1.63
2019-03-08T13:15:23.620Z,3.33
2019-03-08T13:17:56.937Z,2.20
2019-03-08T13:20:30.409Z,2.20
2019-03-08T13:23:03.996Z,1.60
2019-03-08T13:25:37.415Z,1.10
2019-03-08T13:28:10.748Z,1.80
2019-03-08T13:30:44.183Z,1.83
2019-03-08T13:33:17.561Z,1.40
2019-03-08T13:35:50.959Z,0.90
2019-03-08T13:38:24.400Z,0.77
2019-03-08T13:40:57.817Z,0.70
2019-03-08T13:43:31.157Z,1.47
2019-03-08T13:46:04.652Z,0.80
2019-03-08T13:48:38.049Z,0.80
2019-03-08T13:51:11.402Z,0.80
2019-03-08T13:53:44.771Z,0.80
2019-03-08T13:56:18.309Z,1.07
2019-03-08T13:58:51.717Z,0.83
2019-03-08T14:01:25.134Z,0.77
2019-03-08T14:03:58.557Z,0.90
2019-03-08T14:06:32.177Z,1.00
2019-03-08T14:09:06.630Z,0.90
2019-03-08T14:11:40.030Z,0.97
2019-03-08T14:14:13.395Z,1.20
2019-03-08T14:16:46.751Z,1.00
2019-03-08T14:19:20.163Z,1.10
2019-03-08T14:21:53.521Z,1.00
2019-03-08T14:24:26.939Z,1.27
2019-03-08T14:27:00.312Z,1.00
2019-03-08T14:29:33.628Z,1.63
2019-03-08T14:32:06.984Z,1.77
2019-03-08T14:34:40.311Z,1.53
2019-03-08T14:37:16.203Z,1.40
2019-03-08T14:39:48.794Z,1.40
2019-03-08T14:42:26.516Z,1.50
2019-03-08T14:45:03.599Z,1.67
2019-03-08T14:47:37.107Z,1.50
2019-03-08T14:50:10.868Z,1.30
2019-03-08T14:52:44.373Z,1.30
2019-03-08T14:55:18.942Z,1.80
2019-03-08T14:57:55.335Z,1.50
2019-03-08T15:00:29.097Z,1.70
2019-03-08T15:03:03.137Z,1.70
2019-03-08T15:05:36.482Z,1.60
2019-03-08T15:08:13.582Z,1.90
2019-03-08T15:10:47.233Z,1.80
2019-03-08T15:13:23.881Z,1.90
2019-03-08T15:15:57.906Z,2.00
2019-03-08T15:18:31.220Z,2.00
2019-03-08T15:21:04.603Z,1.27
2019-03-08T15:23:37.979Z,1.33
2019-03-08T15:26:11.454Z,1.80
2019-03-08T15:28:44.832Z,1.50
2019-03-08T15:31:18.390Z,1.30
2019-03-08T15:33:51.757Z,1.20
2019-03-08T15:36:25.079Z,1.23
2019-03-08T15:38:59.118Z,1.30
2019-03-08T15:41:32.582Z,1.27
2019-03-08T15:44:06.016Z,1.40
2019-03-08T15:46:39.434Z,1.63
2019-03-08T15:49:13.694Z,1.60
2019-03-08T15:51:47.251Z,1.70
2019-03-08T15:54:20.652Z,1.70
2019-03-08T15:56:54.396Z,1.70
2019-03-08T15:59:27.770Z,2.50
2019-03-08T16:02:02.008Z,2.23
2019-03-08T16:04:36.246Z,1.60
2019-03-08T16:07:10.064Z,1.63
2019-03-08T16:09:43.477Z,1.60
2019-03-08T16:12:16.981Z,1.00
2019-03-08T16:14:50.595Z,1.20
2019-03-08T16:17:24.014Z,1.37
2019-03-08T16:19:58.881Z,1.50
2019-03-08T16:22:32.641Z,1.80
2019-03-08T16:25:09.054Z,1.67
2019-03-08T16:27:42.481Z,1.60
2019-03-08T16:30:23.705Z,1.67
2019-03-08T16:33:04.111Z,1.47
2019-03-08T16:35:48.156Z,1.60
2019-03-08T16:38:39.083Z,1.70
2019-03-08T16:41:29.418Z,1.60
2019-03-08T16:44:13.568Z,1.90
2019-03-08T16:46:48.706Z,2.13
2019-03-08T16:49:39.787Z,1.73
2019-03-08T16:52:23.389Z,1.67
2019-03-08T16:55:01.217Z,1.90
2019-03-08T16:57:45.203Z,1.80
2019-03-08T17:00:32.256Z,1.60
2019-03-08T17:03:13.309Z,1.43
2019-03-08T17:05:48.347Z,1.30
2019-03-08T17:08:39.266Z,1.80
2019-03-08T17:11:32.189Z,1.70
2019-03-08T17:14:16.016Z,1.90
2019-03-08T17:16:51.025Z,1.70
2019-03-08T17:19:28.992Z,2.20
2019-03-08T17:22:15.988Z,1.97
2019-03-08T17:24:59.962Z,1.80
2019-03-08T17:27:41.338Z,2.50
2019-03-08T17:30:24.519Z,2.20
2019-03-08T17:32:59.620Z,3.13
2019-03-08T17:35:35.276Z,3.43
2019-03-08T17:38:12.943Z,3.60
2019-03-08T17:41:04.186Z,3.20
2019-03-08T17:43:41.867Z,3.33
2019-03-08T17:46:19.686Z,4.00
2019-03-08T17:49:06.787Z,3.50
2019-03-08T17:51:57.901Z,3.30
2019-03-08T17:54:49.194Z,2.77
2019-03-08T17:57:26.883Z,2.63
2019-03-08T18:00:10.818Z,3.20
2019-03-08T18:02:45.868Z,4.60
2019-03-08T18:05:23.682Z,7.33
2019-03-08T18:07:58.715Z,5.60
2019-03-08T18:10:42.927Z,6.77
2019-03-08T18:13:17.888Z,6.90
2019-03-08T18:15:55.531Z,7.90
2019-03-08T18:18:46.143Z,7.70
2019-03-08T18:21:33.154Z,7.50
2019-03-08T18:24:24.298Z,9.47
2019-03-08T18:26:59.350Z,8.53
2019-03-08T18:29:49.789Z,7.03
2019-03-08T18:32:27.729Z,6.90
2019-03-08T18:35:05.805Z,5.53
2019-03-08T18:37:57.175Z,5.50
2019-03-08T18:40:35.186Z,5.23
2019-03-08T18:43:10.212Z,4.80
2019-03-08T18:46:01.479Z,4.47
2019-03-08T18:48:36.498Z,4.23
2019-03-08T18:51:23.697Z,4.70
2019-03-08T18:54:04.546Z,4.60
2019-03-08T18:56:45.584Z,3.77
2019-03-08T18:59:26.449Z,4.07
2019-03-08T19:02:16.703Z,5.17
2019-03-08T19:04:54.542Z,4.47
2019-03-08T19:07:32.094Z,3.60
2019-03-08T19:10:11.772Z,3.70
2019-03-08T19:12:46.911Z,3.77
2019-03-08T19:15:28.000Z,4.33
2019-03-08T19:18:19.138Z,3.70
2019-03-08T19:21:10.244Z,3.10
2019-03-08T19:23:47.786Z,2.67
2019-03-08T19:26:25.486Z,1.83
2019-03-08T19:29:00.472Z,2.20
2019-03-08T19:31:44.351Z,2.07
2019-03-08T19:34:19.805Z,1.83
2019-03-08T19:36:57.620Z,1.43
2019-03-08T19:39:38.896Z,1.50
2019-03-08T19:42:22.942Z,1.90
2019-03-08T19:45:03.820Z,1.63
2019-03-08T19:47:45.143Z,1.90
2019-03-08T19:50:36.435Z,2.27
2019-03-08T19:53:13.965Z,2.70
2019-03-08T19:55:52.332Z,2.77
2019-03-08T19:58:27.323Z,3.30
2019-03-08T20:01:14.768Z,2.60
2019-03-08T20:03:53.053Z,3.03
2019-03-08T20:06:39.595Z,2.40
2019-03-08T20:09:14.684Z,1.97
2019-03-08T20:12:05.662Z,2.00
2019-03-08T20:14:43.382Z,1.80
2019-03-08T20:17:24.898Z,2.10
2019-03-08T20:20:11.676Z,1.50
2019-03-08T20:22:46.750Z,1.43
2019-03-08T20:25:27.413Z,1.90
2019-03-08T20:28:08.172Z,1.30
2019-03-08T20:30:43.298Z,1.70
2019-03-08T20:33:23.836Z,1.70
2019-03-08T20:35:58.939Z,1.53
2019-03-08T20:38:49.002Z,1.10
2019-03-08T20:41:26.497Z,1.50
2019-03-08T20:44:13.816Z,1.80
2019-03-08T20:47:00.872Z,1.50
2019-03-08T20:49:34.307Z,1.20
2019-03-08T20:52:07.851Z,1.40
2019-03-08T20:54:41.590Z,1.30
2019-03-08T20:57:15.151Z,1.70
2019-03-08T20:59:48.608Z,1.40
2019-03-08T21:02:21.978Z,1.70
2019-03-08T21:04:55.552Z,1.30
2019-03-08T21:07:29.278Z,1.40
2019-03-08T21:10:02.980Z,1.30
2019-03-08T21:12:36.337Z,1.40
2019-03-08T21:15:25.078Z,1.97
2019-03-08T21:17:51.121Z,1.40
2019-03-08T21:20:24.593Z,1.63
2019-03-08T21:22:58.070Z,1.37
2019-03-08T21:25:31.408Z,1.40
2019-03-08T21:28:04.869Z,1.50
2019-03-08T21:30:38.254Z,1.30
2019-03-08T21:33:11.676Z,1.30
2019-03-08T21:35:45.080Z,1.30
2019-03-08T21:38:18.443Z,1.63
2019-03-08T21:40:51.780Z,0.80
2019-03-08T21:43:25.294Z,1.10
2019-03-08T21:45:58.637Z,1.10
2019-03-08T21:48:32.007Z,1.40
2019-03-08T21:51:05.485Z,1.27
2019-03-08T21:53:38.883Z,1.50
2019-03-08T21:56:12.217Z,1.60
2019-03-08T21:58:45.561Z,1.27
2019-03-08T22:01:18.942Z,1.60
2019-03-08T22:03:54.211Z,2.10
2019-03-08T22:06:27.648Z,2.70
2019-03-08T22:09:05.370Z,2.77
2019-03-08T22:11:40.046Z,1.97
2019-03-08T22:14:13.399Z,1.43
2019-03-08T22:16:46.841Z,1.20
2019-03-08T22:19:20.269Z,1.67
2019-03-08T22:21:53.752Z,1.10
2019-03-08T22:24:27.268Z,1.07
2019-03-08T22:27:00.689Z,1.50
2019-03-08T22:29:34.164Z,1.50
2019-03-08T22:32:07.594Z,1.50
2019-03-08T22:34:41.028Z,1.30
2019-03-08T22:37:14.427Z,1.23
2019-03-08T22:39:47.857Z,1.53
2019-03-08T22:42:21.185Z,1.20
2019-03-08T22:44:54.535Z,1.40
2019-03-08T22:47:28.056Z,1.60
2019-03-08T22:50:01.493Z,1.30
2019-03-08T22:52:34.843Z,1.30
2019-03-08T22:55:13.487Z,1.50
2019-03-08T22:57:46.896Z,1.80
2019-03-08T23:00:54.095Z,2.20
2019-03-08T23:03:28.701Z,2.00
2019-03-08T23:06:02.165Z,1.80
2019-03-08T23:08:35.762Z,2.23
2019-03-08T23:11:09.195Z,2.07
2019-03-08T23:13:42.540Z,2.30
2019-03-08T23:16:15.975Z,2.83
2019-03-08T23:18:49.478Z,2.97
2019-03-08T23:21:22.917Z,2.60
2019-03-08T23:23:56.356Z,2.70
2019-03-08T23:26:31.325Z,2.43
2019-03-08T23:29:21.848Z,2.67
2019-03-08T23:31:59.913Z,2.80
2019-03-08T23:34:33.245Z,2.40
2019-03-08T23:37:06.710Z,2.40
2019-03-08T23:39:40.129Z,2.80
2019-03-08T23:42:13.447Z,2.03
2019-03-08T23:44:47.066Z,2.00
2019-03-08T23:47:20.395Z,2.67
2019-03-08T23:49:53.811Z,2.03
2019-03-08T23:52:27.143Z,2.17
2019-03-08T23:55:00.761Z,2.20
2019-03-08T23:57:34.180Z,2.37
